Dorloo, New York
Current Conditions -  °F | °C
As of 1:35 PM on Thursday 23 Oct 2014 (Local Time) from KNY0 Reporting Station
Overcast Overcast  
Wind Chill: 47°   Ceiling: 9000
Heat Index: 47°   Visibility: 10mi
Dew Point: 46°   Wind: 3mph
Humidity: 95%   Direction: 350°N
Pressure: 29.84"   Gusts: NA
Location:  42.6995°N, 74.5108°W
Report Text: KNY0 231735Z AUTO 35003KT 10SM SCT016 SCT040 OVC090 09/08 A2984 RMK AO2 P0004 T00850077
Loading
Personal Weather Stations






























Interactive Weather Map
Tropical Storm Tracking
New forecast layout! Learn more

10-Day Weather Forecast

Advertisements
Track Severe Weather on mobile